sensor_id;sensor_type;location;lat;lon;timestamp;P1;durP1;ratioP1;P2;durP2;ratioP2
61527;SDS011;47395;42.032;-8.634;2023-02-19T00:01:08;1671.55;;;999.90;;
61527;SDS011;47395;42.032;-8.634;2023-02-19T00:03:16;1687.32;;;999.90;;
61527;SDS011;47395;42.032;-8.634;2023-02-19T00:05:17;1668.03;;;999.90;;
61527;SDS011;47395;42.032;-8.634;2023-02-19T00:07:18;1641.03;;;999.90;;
61527;SDS011;47395;42.032;-8.634;2023-02-19T00:09:19;1681.32;;;999.90;;
61527;SDS011;47395;42.032;-8.634;2023-02-19T00:11:21;1652.43;;;999.90;;
61527;SDS011;47395;42.032;-8.634;2023-02-19T00:13:24;1703.78;;;999.90;;
61527;SDS011;47395;42.032;-8.634;2023-02-19T00:15:25;1709.07;;;999.90;;
61527;SDS011;47395;42.032;-8.634;2023-02-19T00:17:25;1701.93;;;999.90;;
61527;SDS011;47395;42.032;-8.634;2023-02-19T00:19:26;1700.25;;;999.90;;
61527;SDS011;47395;42.032;-8.634;2023-02-19T00:21:27;1651.78;;;999.90;;
61527;SDS011;47395;42.032;-8.634;2023-02-19T00:23:29;1629.35;;;999.90;;
61527;SDS011;47395;42.032;-8.634;2023-02-19T00:25:30;1600.50;;;999.90;;
61527;SDS011;47395;42.032;-8.634;2023-02-19T00:27:31;1660.53;;;999.90;;
61527;SDS011;47395;42.032;-8.634;2023-02-19T00:29:32;1710.60;;;999.90;;
61527;SDS011;47395;42.032;-8.634;2023-02-19T00:31:33;1695.65;;;999.90;;
61527;SDS011;47395;42.032;-8.634;2023-02-19T00:33:35;1648.93;;;999.90;;
61527;SDS011;47395;42.032;-8.634;2023-02-19T00:35:36;1598.82;;;999.90;;
61527;SDS011;47395;42.032;-8.634;2023-02-19T00:37:37;1561.97;;;999.90;;
61527;SDS011;47395;42.032;-8.634;2023-02-19T00:39:37;1628.40;;;999.90;;
61527;SDS011;47395;42.032;-8.634;2023-02-19T00:41:38;1598.63;;;999.90;;
61527;SDS011;47395;42.032;-8.634;2023-02-19T00:43:39;1662.93;;;999.90;;
61527;SDS011;47395;42.032;-8.634;2023-02-19T00:45:40;1616.93;;;999.90;;
61527;SDS011;47395;42.032;-8.634;2023-02-19T00:47:41;1610.88;;;999.90;;
61527;SDS011;47395;42.032;-8.634;2023-02-19T00:49:42;1635.90;;;999.90;;
61527;SDS011;47395;42.032;-8.634;2023-02-19T00:51:43;1658.57;;;999.90;;
61527;SDS011;47395;42.032;-8.634;2023-02-19T00:53:44;1546.10;;;999.90;;
61527;SDS011;47395;42.032;-8.634;2023-02-19T00:55:45;1678.03;;;999.90;;
61527;SDS011;47395;42.032;-8.634;2023-02-19T00:57:46;1630.57;;;999.90;;
61527;SDS011;47395;42.032;-8.634;2023-02-19T00:59:46;1659.28;;;999.90;;
61527;SDS011;47395;42.032;-8.634;2023-02-19T01:01:48;1646.18;;;999.90;;
61527;SDS011;47395;42.032;-8.634;2023-02-19T01:03:49;1614.32;;;999.90;;
61527;SDS011;47395;42.032;-8.634;2023-02-19T01:05:50;1602.65;;;999.90;;
61527;SDS011;47395;42.032;-8.634;2023-02-19T01:07:52;1616.43;;;999.90;;
61527;SDS011;47395;42.032;-8.634;2023-02-19T01:09:53;1571.18;;;999.90;;
61527;SDS011;47395;42.032;-8.634;2023-02-19T01:11:54;1680.63;;;999.90;;
61527;SDS011;47395;42.032;-8.634;2023-02-19T01:13:56;1701.53;;;999.90;;
61527;SDS011;47395;42.032;-8.634;2023-02-19T01:16:14;1630.35;;;999.90;;
61527;SDS011;47395;42.032;-8.634;2023-02-19T01:18:17;1656.80;;;999.90;;
61527;SDS011;47395;42.032;-8.634;2023-02-19T01:20:18;1639.43;;;999.90;;
61527;SDS011;47395;42.032;-8.634;2023-02-19T01:22:19;1709.75;;;999.90;;
61527;SDS011;47395;42.032;-8.634;2023-02-19T01:24:19;1739.72;;;999.90;;
61527;SDS011;47395;42.032;-8.634;2023-02-19T01:26:21;1727.10;;;999.90;;
61527;SDS011;47395;42.032;-8.634;2023-02-19T01:28:25;1752.95;;;999.90;;
61527;SDS011;47395;42.032;-8.634;2023-02-19T01:30:26;1730.55;;;999.90;;
61527;SDS011;47395;42.032;-8.634;2023-02-19T01:32:27;1735.03;;;999.90;;
61527;SDS011;47395;42.032;-8.634;2023-02-19T01:34:28;1654.85;;;999.90;;
61527;SDS011;47395;42.032;-8.634;2023-02-19T01:36:32;1808.05;;;999.90;;
61527;SDS011;47395;42.032;-8.634;2023-02-19T01:38:33;1738.18;;;999.90;;
61527;SDS011;47395;42.032;-8.634;2023-02-19T01:40:34;1795.72;;;999.90;;
61527;SDS011;47395;42.032;-8.634;2023-02-19T01:42:35;1725.63;;;999.90;;
61527;SDS011;47395;42.032;-8.634;2023-02-19T01:47:20;1668.82;;;999.90;;
61527;SDS011;47395;42.032;-8.634;2023-02-19T01:49:22;1652.85;;;999.90;;
61527;SDS011;47395;42.032;-8.634;2023-02-19T01:51:27;1714.35;;;999.90;;
61527;SDS011;47395;42.032;-8.634;2023-02-19T01:53:33;1752.07;;;999.90;;
61527;SDS011;47395;42.032;-8.634;2023-02-19T01:55:38;1699.65;;;999.90;;
61527;SDS011;47395;42.032;-8.634;2023-02-19T01:57:42;1743.97;;;999.90;;
61527;SDS011;47395;42.032;-8.634;2023-02-19T01:59:51;1683.00;;;999.90;;
61527;SDS011;47395;42.032;-8.634;2023-02-19T02:01:56;1669.18;;;999.90;;
61527;SDS011;47395;42.032;-8.634;2023-02-19T02:03:59;1739.68;;;999.90;;
61527;SDS011;47395;42.032;-8.634;2023-02-19T02:06:07;1761.88;;;999.90;;
61527;SDS011;47395;42.032;-8.634;2023-02-19T02:08:13;1674.38;;;999.90;;
61527;SDS011;47395;42.032;-8.634;2023-02-19T02:10:34;1654.85;;;999.90;;
61527;SDS011;47395;42.032;-8.634;2023-02-19T02:12:36;1654.75;;;999.90;;
61527;SDS011;47395;42.032;-8.634;2023-02-19T02:14:37;1663.97;;;999.90;;
61527;SDS011;47395;42.032;-8.634;2023-02-19T02:25:23;1561.87;;;999.90;;
61527;SDS011;47395;42.032;-8.634;2023-02-19T02:28:49;1550.93;;;999.90;;
61527;SDS011;47395;42.032;-8.634;2023-02-19T02:30:38;1552.60;;;999.90;;
61527;SDS011;47395;42.032;-8.634;2023-02-19T02:32:44;1600.75;;;999.90;;
61527;SDS011;47395;42.032;-8.634;2023-02-19T02:35:00;1570.32;;;999.90;;
61527;SDS011;47395;42.032;-8.634;2023-02-19T02:37:13;1559.22;;;999.90;;
61527;SDS011;47395;42.032;-8.634;2023-02-19T02:39:16;1618.20;;;999.90;;
61527;SDS011;47395;42.032;-8.634;2023-02-19T02:41:21;1648.68;;;999.90;;
61527;SDS011;47395;42.032;-8.634;2023-02-19T02:43:23;1630.10;;;999.90;;
61527;SDS011;47395;42.032;-8.634;2023-02-19T02:45:26;1624.32;;;999.90;;
61527;SDS011;47395;42.032;-8.634;2023-02-19T02:47:42;1628.10;;;999.90;;
61527;SDS011;47395;42.032;-8.634;2023-02-19T02:49:50;1716.00;;;999.90;;
61527;SDS011;47395;42.032;-8.634;2023-02-19T02:52:05;1671.60;;;999.90;;
61527;SDS011;47395;42.032;-8.634;2023-02-19T02:54:27;1556.43;;;999.90;;
61527;SDS011;47395;42.032;-8.634;2023-02-19T02:56:50;1564.82;;;999.90;;
61527;SDS011;47395;42.032;-8.634;2023-02-19T02:58:52;1651.05;;;999.90;;
61527;SDS011;47395;42.032;-8.634;2023-02-19T03:01:08;1680.68;;;999.90;;
61527;SDS011;47395;42.032;-8.634;2023-02-19T03:03:29;1687.32;;;999.90;;
61527;SDS011;47395;42.032;-8.634;2023-02-19T03:05:32;1680.97;;;999.90;;
61527;SDS011;47395;42.032;-8.634;2023-02-19T03:08:25;1627.43;;;999.90;;
61527;SDS011;47395;42.032;-8.634;2023-02-19T03:10:41;1545.72;;;999.90;;
61527;SDS011;47395;42.032;-8.634;2023-02-19T03:12:46;1559.97;;;999.90;;
61527;SDS011;47395;42.032;-8.634;2023-02-19T03:15:09;1596.65;;;999.90;;
61527;SDS011;47395;42.032;-8.634;2023-02-19T03:17:36;1577.47;;;999.90;;
61527;SDS011;47395;42.032;-8.634;2023-02-19T03:20:02;1561.10;;;999.90;;
61527;SDS011;47395;42.032;-8.634;2023-02-19T03:22:13;1695.70;;;999.90;;
61527;SDS011;47395;42.032;-8.634;2023-02-19T03:24:23;1685.40;;;999.90;;
61527;SDS011;47395;42.032;-8.634;2023-02-19T03:26:47;1586.32;;;999.90;;
61527;SDS011;47395;42.032;-8.634;2023-02-19T03:28:54;1627.25;;;999.90;;
61527;SDS011;47395;42.032;-8.634;2023-02-19T03:31:18;1628.07;;;999.90;;
61527;SDS011;47395;42.032;-8.634;2023-02-19T03:33:25;1624.13;;;999.90;;
61527;SDS011;47395;42.032;-8.634;2023-02-19T03:35:32;1545.45;;;999.90;;
61527;SDS011;47395;42.032;-8.634;2023-02-19T03:37:40;1705.97;;;999.90;;
61527;SDS011;47395;42.032;-8.634;2023-02-19T03:40:06;1604.50;;;999.90;;
61527;SDS011;47395;42.032;-8.634;2023-02-19T03:42:14;1622.65;;;999.90;;
61527;SDS011;47395;42.032;-8.634;2023-02-19T03:45:43;1588.95;;;999.90;;
61527;SDS011;47395;42.032;-8.634;2023-02-19T03:47:28;1522.75;;;999.90;;
61527;SDS011;47395;42.032;-8.634;2023-02-19T03:49:40;1532.78;;;999.90;;
61527;SDS011;47395;42.032;-8.634;2023-02-19T03:52:04;1524.82;;;999.90;;
61527;SDS011;47395;42.032;-8.634;2023-02-19T03:54:31;1532.75;;;999.90;;
61527;SDS011;47395;42.032;-8.634;2023-02-19T03:56:40;1533.82;;;999.90;;
61527;SDS011;47395;42.032;-8.634;2023-02-19T03:58:54;1615.85;;;999.90;;
61527;SDS011;47395;42.032;-8.634;2023-02-19T04:01:20;1537.05;;;999.90;;
61527;SDS011;47395;42.032;-8.634;2023-02-19T04:03:33;1569.30;;;999.90;;
61527;SDS011;47395;42.032;-8.634;2023-02-19T04:05:46;1545.05;;;999.90;;
61527;SDS011;47395;42.032;-8.634;2023-02-19T04:07:52;1634.97;;;999.90;;
61527;SDS011;47395;42.032;-8.634;2023-02-19T04:10:02;1593.97;;;999.90;;
61527;SDS011;47395;42.032;-8.634;2023-02-19T04:12:05;1512.57;;;999.90;;
61527;SDS011;47395;42.032;-8.634;2023-02-19T04:16:22;1578.78;;;999.90;;
61527;SDS011;47395;42.032;-8.634;2023-02-19T04:18:27;1618.75;;;999.90;;
61527;SDS011;47395;42.032;-8.634;2023-02-19T04:20:38;1570.65;;;999.90;;
61527;SDS011;47395;42.032;-8.634;2023-02-19T04:22:42;1664.03;;;999.90;;
61527;SDS011;47395;42.032;-8.634;2023-02-19T04:24:47;1600.25;;;999.90;;
61527;SDS011;47395;42.032;-8.634;2023-02-19T04:26:50;1623.75;;;999.90;;
61527;SDS011;47395;42.032;-8.634;2023-02-19T04:28:52;1593.53;;;999.90;;
61527;SDS011;47395;42.032;-8.634;2023-02-19T04:30:53;1561.10;;;999.90;;
61527;SDS011;47395;42.032;-8.634;2023-02-19T04:32:54;1602.40;;;999.90;;
61527;SDS011;47395;42.032;-8.634;2023-02-19T04:34:55;1626.70;;;999.90;;
61527;SDS011;47395;42.032;-8.634;2023-02-19T04:36:56;1608.57;;;999.90;;
61527;SDS011;47395;42.032;-8.634;2023-02-19T04:38:57;1673.85;;;999.90;;
61527;SDS011;47395;42.032;-8.634;2023-02-19T04:40:58;1547.50;;;999.90;;
61527;SDS011;47395;42.032;-8.634;2023-02-19T04:42:58;1604.85;;;999.90;;
61527;SDS011;47395;42.032;-8.634;2023-02-19T04:44:59;1564.97;;;999.90;;
61527;SDS011;47395;42.032;-8.634;2023-02-19T04:47:00;1669.82;;;999.90;;
61527;SDS011;47395;42.032;-8.634;2023-02-19T04:49:01;1614.18;;;999.90;;
61527;SDS011;47395;42.032;-8.634;2023-02-19T04:51:05;1541.88;;;999.90;;
61527;SDS011;47395;42.032;-8.634;2023-02-19T04:53:06;1622.20;;;999.90;;
61527;SDS011;47395;42.032;-8.634;2023-02-19T04:55:07;1533.40;;;999.90;;
61527;SDS011;47395;42.032;-8.634;2023-02-19T04:57:08;1604.18;;;999.90;;
61527;SDS011;47395;42.032;-8.634;2023-02-19T04:59:09;1593.90;;;999.90;;
61527;SDS011;47395;42.032;-8.634;2023-02-19T05:01:10;1609.45;;;999.90;;
61527;SDS011;47395;42.032;-8.634;2023-02-19T05:03:11;1599.22;;;999.90;;
61527;SDS011;47395;42.032;-8.634;2023-02-19T05:05:12;1581.32;;;999.90;;
61527;SDS011;47395;42.032;-8.634;2023-02-19T05:07:13;1572.15;;;999.90;;
61527;SDS011;47395;42.032;-8.634;2023-02-19T05:09:14;1569.00;;;999.90;;
61527;SDS011;47395;42.032;-8.634;2023-02-19T05:11:15;1610.45;;;999.90;;
61527;SDS011;47395;42.032;-8.634;2023-02-19T05:13:16;1612.70;;;999.90;;
61527;SDS011;47395;42.032;-8.634;2023-02-19T05:15:17;1532.68;;;999.90;;
61527;SDS011;47395;42.032;-8.634;2023-02-19T05:17:18;1575.25;;;999.90;;
61527;SDS011;47395;42.032;-8.634;2023-02-19T05:19:18;1533.50;;;999.90;;
61527;SDS011;47395;42.032;-8.634;2023-02-19T05:21:20;1520.28;;;999.90;;
61527;SDS011;47395;42.032;-8.634;2023-02-19T05:23:20;1616.95;;;999.90;;
61527;SDS011;47395;42.032;-8.634;2023-02-19T05:25:21;1487.80;;;999.90;;
61527;SDS011;47395;42.032;-8.634;2023-02-19T05:27:22;1580.80;;;999.90;;
61527;SDS011;47395;42.032;-8.634;2023-02-19T05:29:23;1506.72;;;999.90;;
61527;SDS011;47395;42.032;-8.634;2023-02-19T05:31:24;1620.82;;;999.90;;
61527;SDS011;47395;42.032;-8.634;2023-02-19T05:33:25;1656.30;;;999.90;;
61527;SDS011;47395;42.032;-8.634;2023-02-19T05:35:26;1531.65;;;999.90;;
61527;SDS011;47395;42.032;-8.634;2023-02-19T05:37:27;1563.88;;;999.90;;
61527;SDS011;47395;42.032;-8.634;2023-02-19T05:39:28;1564.03;;;999.90;;
61527;SDS011;47395;42.032;-8.634;2023-02-19T05:41:28;1520.90;;;999.90;;
61527;SDS011;47395;42.032;-8.634;2023-02-19T05:43:29;1559.95;;;999.90;;
61527;SDS011;47395;42.032;-8.634;2023-02-19T05:45:30;1600.65;;;999.90;;
61527;SDS011;47395;42.032;-8.634;2023-02-19T05:47:32;1611.10;;;999.90;;
61527;SDS011;47395;42.032;-8.634;2023-02-19T05:49:32;1629.15;;;999.90;;
61527;SDS011;47395;42.032;-8.634;2023-02-19T05:51:33;1602.07;;;999.90;;
61527;SDS011;47395;42.032;-8.634;2023-02-19T05:53:34;1508.15;;;999.90;;
61527;SDS011;47395;42.032;-8.634;2023-02-19T05:55:35;1491.00;;;999.90;;
61527;SDS011;47395;42.032;-8.634;2023-02-19T05:57:43;1579.50;;;999.90;;
61527;SDS011;47395;42.032;-8.634;2023-02-19T05:59:45;1580.80;;;999.90;;
61527;SDS011;47395;42.032;-8.634;2023-02-19T06:01:47;1583.32;;;999.90;;
61527;SDS011;47395;42.032;-8.634;2023-02-19T06:03:49;1569.95;;;999.90;;
61527;SDS011;47395;42.032;-8.634;2023-02-19T06:05:49;1562.28;;;999.90;;
61527;SDS011;47395;42.032;-8.634;2023-02-19T06:07:50;1626.88;;;999.90;;
61527;SDS011;47395;42.032;-8.634;2023-02-19T06:09:51;1475.15;;;999.90;;
61527;SDS011;47395;42.032;-8.634;2023-02-19T06:11:52;1497.57;;;999.90;;
61527;SDS011;47395;42.032;-8.634;2023-02-19T06:13:53;1464.03;;;999.90;;
61527;SDS011;47395;42.032;-8.634;2023-02-19T06:15:54;1465.00;;;999.90;;
61527;SDS011;47395;42.032;-8.634;2023-02-19T06:17:55;1540.28;;;999.90;;
61527;SDS011;47395;42.032;-8.634;2023-02-19T06:19:56;1535.38;;;999.90;;
61527;SDS011;47395;42.032;-8.634;2023-02-19T06:21:57;1511.25;;;999.90;;
61527;SDS011;47395;42.032;-8.634;2023-02-19T06:23:58;1489.47;;;999.90;;
61527;SDS011;47395;42.032;-8.634;2023-02-19T06:26:04;1535.95;;;999.90;;
61527;SDS011;47395;42.032;-8.634;2023-02-19T06:28:06;1552.25;;;999.90;;
61527;SDS011;47395;42.032;-8.634;2023-02-19T06:30:09;1609.72;;;999.90;;
61527;SDS011;47395;42.032;-8.634;2023-02-19T06:32:11;1445.35;;;999.90;;
61527;SDS011;47395;42.032;-8.634;2023-02-19T06:34:11;1450.75;;;999.90;;
61527;SDS011;47395;42.032;-8.634;2023-02-19T06:36:15;1575.80;;;999.90;;
61527;SDS011;47395;42.032;-8.634;2023-02-19T06:38:22;1533.78;;;999.90;;
61527;SDS011;47395;42.032;-8.634;2023-02-19T06:40:22;1489.30;;;999.90;;
61527;SDS011;47395;42.032;-8.634;2023-02-19T06:42:23;1524.60;;;999.90;;
61527;SDS011;47395;42.032;-8.634;2023-02-19T06:44:24;1487.97;;;999.90;;
61527;SDS011;47395;42.032;-8.634;2023-02-19T06:46:25;1492.43;;;999.90;;
61527;SDS011;47395;42.032;-8.634;2023-02-19T06:48:26;1503.68;;;999.90;;
61527;SDS011;47395;42.032;-8.634;2023-02-19T06:50:28;1430.95;;;999.90;;
61527;SDS011;47395;42.032;-8.634;2023-02-19T06:52:29;1464.72;;;999.90;;
61527;SDS011;47395;42.032;-8.634;2023-02-19T06:54:30;1513.25;;;999.90;;
61527;SDS011;47395;42.032;-8.634;2023-02-19T06:56:33;1420.20;;;999.90;;
61527;SDS011;47395;42.032;-8.634;2023-02-19T06:58:36;1411.53;;;999.90;;
61527;SDS011;47395;42.032;-8.634;2023-02-19T07:00:37;1414.07;;;999.90;;
61527;SDS011;47395;42.032;-8.634;2023-02-19T07:02:38;1436.93;;;999.90;;
61527;SDS011;47395;42.032;-8.634;2023-02-19T07:04:39;1554.13;;;999.90;;
61527;SDS011;47395;42.032;-8.634;2023-02-19T07:06:40;1523.20;;;999.90;;
61527;SDS011;47395;42.032;-8.634;2023-02-19T07:08:41;1419.35;;;999.90;;
61527;SDS011;47395;42.032;-8.634;2023-02-19T07:10:44;1535.90;;;999.90;;
61527;SDS011;47395;42.032;-8.634;2023-02-19T07:12:46;1499.78;;;999.90;;
61527;SDS011;47395;42.032;-8.634;2023-02-19T07:14:46;1468.18;;;999.90;;
61527;SDS011;47395;42.032;-8.634;2023-02-19T07:16:47;1473.53;;;999.90;;
61527;SDS011;47395;42.032;-8.634;2023-02-19T07:18:48;1520.28;;;999.90;;
61527;SDS011;47395;42.032;-8.634;2023-02-19T07:20:49;1589.53;;;999.90;;
61527;SDS011;47395;42.032;-8.634;2023-02-19T07:22:50;1631.22;;;999.90;;
61527;SDS011;47395;42.032;-8.634;2023-02-19T07:24:51;1477.38;;;999.90;;
61527;SDS011;47395;42.032;-8.634;2023-02-19T07:26:51;1471.00;;;999.90;;
61527;SDS011;47395;42.032;-8.634;2023-02-19T07:28:52;1478.35;;;999.90;;
61527;SDS011;47395;42.032;-8.634;2023-02-19T07:30:53;1497.88;;;999.90;;
61527;SDS011;47395;42.032;-8.634;2023-02-19T07:33:00;1495.20;;;999.90;;
61527;SDS011;47395;42.032;-8.634;2023-02-19T07:35:01;1444.63;;;999.90;;
61527;SDS011;47395;42.032;-8.634;2023-02-19T07:37:02;1503.50;;;999.90;;
61527;SDS011;47395;42.032;-8.634;2023-02-19T07:39:03;1478.75;;;999.90;;
61527;SDS011;47395;42.032;-8.634;2023-02-19T07:41:04;1556.25;;;999.90;;
61527;SDS011;47395;42.032;-8.634;2023-02-19T07:43:06;1536.35;;;999.90;;
61527;SDS011;47395;42.032;-8.634;2023-02-19T07:45:07;1497.60;;;999.90;;
61527;SDS011;47395;42.032;-8.634;2023-02-19T07:47:08;1563.03;;;999.90;;
61527;SDS011;47395;42.032;-8.634;2023-02-19T07:49:08;1484.90;;;999.90;;
61527;SDS011;47395;42.032;-8.634;2023-02-19T07:51:14;1562.90;;;999.90;;
61527;SDS011;47395;42.032;-8.634;2023-02-19T07:53:18;1536.20;;;999.90;;
61527;SDS011;47395;42.032;-8.634;2023-02-19T07:55:19;1530.00;;;999.90;;
61527;SDS011;47395;42.032;-8.634;2023-02-19T07:57:20;1471.75;;;999.90;;
61527;SDS011;47395;42.032;-8.634;2023-02-19T07:59:21;1520.28;;;999.90;;
61527;SDS011;47395;42.032;-8.634;2023-02-19T08:01:22;1512.85;;;999.90;;
61527;SDS011;47395;42.032;-8.634;2023-02-19T08:03:43;1524.40;;;999.90;;
61527;SDS011;47395;42.032;-8.634;2023-02-19T08:05:45;1529.63;;;999.90;;
61527;SDS011;47395;42.032;-8.634;2023-02-19T08:07:47;1573.38;;;999.90;;
61527;SDS011;47395;42.032;-8.634;2023-02-19T08:09:47;1579.22;;;999.90;;
61527;SDS011;47395;42.032;-8.634;2023-02-19T08:12:09;1498.65;;;999.90;;
61527;SDS011;47395;42.032;-8.634;2023-02-19T08:14:39;1481.10;;;999.90;;
61527;SDS011;47395;42.032;-8.634;2023-02-19T08:16:47;1542.30;;;999.90;;
61527;SDS011;47395;42.032;-8.634;2023-02-19T08:18:48;1460.85;;;999.90;;
61527;SDS011;47395;42.032;-8.634;2023-02-19T08:20:49;1649.72;;;999.90;;
61527;SDS011;47395;42.032;-8.634;2023-02-19T08:22:50;1588.47;;;999.90;;
61527;SDS011;47395;42.032;-8.634;2023-02-19T08:24:51;1622.15;;;999.90;;
61527;SDS011;47395;42.032;-8.634;2023-02-19T08:26:52;1633.63;;;999.90;;
61527;SDS011;47395;42.032;-8.634;2023-02-19T08:28:53;1590.97;;;999.90;;
61527;SDS011;47395;42.032;-8.634;2023-02-19T08:30:57;1689.18;;;999.90;;
61527;SDS011;47395;42.032;-8.634;2023-02-19T08:33:00;1681.43;;;999.90;;
61527;SDS011;47395;42.032;-8.634;2023-02-19T08:35:01;1715.70;;;999.90;;
61527;SDS011;47395;42.032;-8.634;2023-02-19T08:37:02;1673.93;;;999.90;;
61527;SDS011;47395;42.032;-8.634;2023-02-19T08:39:03;1641.60;;;999.90;;
61527;SDS011;47395;42.032;-8.634;2023-02-19T08:41:05;1784.95;;;999.90;;
61527;SDS011;47395;42.032;-8.634;2023-02-19T08:43:09;1707.82;;;999.90;;
61527;SDS011;47395;42.032;-8.634;2023-02-19T08:45:11;1815.70;;;999.90;;
61527;SDS011;47395;42.032;-8.634;2023-02-19T08:47:12;1821.20;;;999.90;;
61527;SDS011;47395;42.032;-8.634;2023-02-19T08:49:14;1818.63;;;999.90;;
61527;SDS011;47395;42.032;-8.634;2023-02-19T08:51:15;1773.95;;;999.90;;
61527;SDS011;47395;42.032;-8.634;2023-02-19T08:53:16;1831.15;;;999.90;;
61527;SDS011;47395;42.032;-8.634;2023-02-19T08:55:17;1921.43;;;999.90;;
61527;SDS011;47395;42.032;-8.634;2023-02-19T08:57:18;1968.55;;;999.90;;
61527;SDS011;47395;42.032;-8.634;2023-02-19T08:59:19;1999.90;;;999.90;;
61527;SDS011;47395;42.032;-8.634;2023-02-19T09:01:19;1999.90;;;999.90;;
61527;SDS011;47395;42.032;-8.634;2023-02-19T09:03:20;1999.90;;;999.90;;
61527;SDS011;47395;42.032;-8.634;2023-02-19T09:05:21;1999.90;;;999.90;;
61527;SDS011;47395;42.032;-8.634;2023-02-19T09:07:22;1999.90;;;999.90;;
61527;SDS011;47395;42.032;-8.634;2023-02-19T09:09:23;1999.90;;;999.90;;
61527;SDS011;47395;42.032;-8.634;2023-02-19T09:11:23;1999.90;;;999.90;;
61527;SDS011;47395;42.032;-8.634;2023-02-19T09:13:24;1999.90;;;999.90;;
61527;SDS011;47395;42.032;-8.634;2023-02-19T09:15:25;1999.90;;;999.90;;
61527;SDS011;47395;42.032;-8.634;2023-02-19T09:17:27;1999.90;;;999.90;;
61527;SDS011;47395;42.032;-8.634;2023-02-19T09:19:28;1999.90;;;999.90;;
61527;SDS011;47395;42.032;-8.634;2023-02-19T09:21:30;1961.10;;;999.90;;
61527;SDS011;47395;42.032;-8.634;2023-02-19T09:23:31;1999.90;;;999.90;;
61527;SDS011;47395;42.032;-8.634;2023-02-19T09:25:33;1999.90;;;999.90;;
61527;SDS011;47395;42.032;-8.634;2023-02-19T09:27:34;1942.15;;;999.90;;
61527;SDS011;47395;42.032;-8.634;2023-02-19T09:29:35;1992.57;;;999.90;;
61527;SDS011;47395;42.032;-8.634;2023-02-19T09:31:36;1929.50;;;999.90;;
61527;SDS011;47395;42.032;-8.634;2023-02-19T09:33:37;1950.45;;;999.90;;
61527;SDS011;47395;42.032;-8.634;2023-02-19T09:35:42;1980.97;;;999.90;;
61527;SDS011;47395;42.032;-8.634;2023-02-19T09:37:43;1999.90;;;999.90;;
61527;SDS011;47395;42.032;-8.634;2023-02-19T09:39:43;1972.25;;;999.90;;
61527;SDS011;47395;42.032;-8.634;2023-02-19T09:41:48;1999.90;;;999.90;;
61527;SDS011;47395;42.032;-8.634;2023-02-19T09:43:54;1999.90;;;999.90;;
61527;SDS011;47395;42.032;-8.634;2023-02-19T09:46:01;1999.90;;;999.90;;
61527;SDS011;47395;42.032;-8.634;2023-02-19T09:48:07;1999.90;;;999.90;;
61527;SDS011;47395;42.032;-8.634;2023-02-19T09:50:11;1999.90;;;999.90;;
61527;SDS011;47395;42.032;-8.634;2023-02-19T09:52:25;1999.90;;;999.90;;
61527;SDS011;47395;42.032;-8.634;2023-02-19T09:54:32;1999.90;;;999.90;;
61527;SDS011;47395;42.032;-8.634;2023-02-19T09:56:35;1999.90;;;999.90;;
61527;SDS011;47395;42.032;-8.634;2023-02-19T09:58:47;1999.90;;;999.90;;
61527;SDS011;47395;42.032;-8.634;2023-02-19T10:00:52;1999.90;;;999.90;;
61527;SDS011;47395;42.032;-8.634;2023-02-19T10:03:04;1999.90;;;999.90;;
61527;SDS011;47395;42.032;-8.634;2023-02-19T10:05:11;1999.90;;;999.90;;
61527;SDS011;47395;42.032;-8.634;2023-02-19T10:07:15;1999.90;;;999.90;;
61527;SDS011;47395;42.032;-8.634;2023-02-19T10:09:21;1999.90;;;999.90;;
61527;SDS011;47395;42.032;-8.634;2023-02-19T10:11:25;1999.90;;;999.90;;
61527;SDS011;47395;42.032;-8.634;2023-02-19T10:13:30;1999.90;;;999.90;;
61527;SDS011;47395;42.032;-8.634;2023-02-19T10:15:37;1999.90;;;999.90;;
61527;SDS011;47395;42.032;-8.634;2023-02-19T10:17:42;1999.90;;;999.90;;
61527;SDS011;47395;42.032;-8.634;2023-02-19T10:19:43;1999.90;;;999.90;;
61527;SDS011;47395;42.032;-8.634;2023-02-19T10:21:44;1999.90;;;999.90;;
61527;SDS011;47395;42.032;-8.634;2023-02-19T10:23:46;1999.90;;;999.90;;
61527;SDS011;47395;42.032;-8.634;2023-02-19T10:25:53;1999.90;;;999.90;;
61527;SDS011;47395;42.032;-8.634;2023-02-19T10:27:58;1999.90;;;999.90;;
61527;SDS011;47395;42.032;-8.634;2023-02-19T10:30:00;1999.90;;;999.90;;
61527;SDS011;47395;42.032;-8.634;2023-02-19T10:32:10;1999.90;;;999.90;;
61527;SDS011;47395;42.032;-8.634;2023-02-19T10:34:20;1999.90;;;999.90;;
61527;SDS011;47395;42.032;-8.634;2023-02-19T10:36:29;1999.90;;;999.90;;
61527;SDS011;47395;42.032;-8.634;2023-02-19T10:38:34;1999.90;;;999.90;;
61527;SDS011;47395;42.032;-8.634;2023-02-19T10:40:40;1999.90;;;999.90;;
61527;SDS011;47395;42.032;-8.634;2023-02-19T10:42:45;1999.90;;;999.90;;
61527;SDS011;47395;42.032;-8.634;2023-02-19T10:44:55;1999.90;;;999.90;;
61527;SDS011;47395;42.032;-8.634;2023-02-19T10:47:01;1999.90;;;999.90;;
61527;SDS011;47395;42.032;-8.634;2023-02-19T10:51:37;1999.90;;;999.90;;
61527;SDS011;47395;42.032;-8.634;2023-02-19T10:53:41;1999.90;;;999.90;;
61527;SDS011;47395;42.032;-8.634;2023-02-19T10:55:47;1999.90;;;999.90;;
61527;SDS011;47395;42.032;-8.634;2023-02-19T10:57:48;1999.90;;;999.90;;
61527;SDS011;47395;42.032;-8.634;2023-02-19T10:59:50;1999.90;;;999.90;;
61527;SDS011;47395;42.032;-8.634;2023-02-19T11:02:15;1999.90;;;999.90;;
61527;SDS011;47395;42.032;-8.634;2023-02-19T11:04:17;1999.90;;;999.90;;
61527;SDS011;47395;42.032;-8.634;2023-02-19T11:06:19;1999.90;;;999.90;;
61527;SDS011;47395;42.032;-8.634;2023-02-19T11:08:25;1999.90;;;999.90;;
61527;SDS011;47395;42.032;-8.634;2023-02-19T11:10:29;1999.90;;;999.90;;
61527;SDS011;47395;42.032;-8.634;2023-02-19T11:12:35;1999.90;;;999.90;;
61527;SDS011;47395;42.032;-8.634;2023-02-19T11:14:36;1999.90;;;999.90;;
61527;SDS011;47395;42.032;-8.634;2023-02-19T11:16:43;1999.90;;;999.90;;
61527;SDS011;47395;42.032;-8.634;2023-02-19T11:18:54;1999.90;;;999.90;;
61527;SDS011;47395;42.032;-8.634;2023-02-19T11:20:56;1999.90;;;999.90;;
61527;SDS011;47395;42.032;-8.634;2023-02-19T11:23:00;1999.90;;;999.90;;
61527;SDS011;47395;42.032;-8.634;2023-02-19T11:27:25;1999.90;;;999.90;;
61527;SDS011;47395;42.032;-8.634;2023-02-19T11:29:26;1999.90;;;999.90;;
61527;SDS011;47395;42.032;-8.634;2023-02-19T11:31:29;1999.90;;;999.90;;
61527;SDS011;47395;42.032;-8.634;2023-02-19T11:33:31;1999.90;;;999.90;;
61527;SDS011;47395;42.032;-8.634;2023-02-19T11:35:32;1999.90;;;999.90;;
61527;SDS011;47395;42.032;-8.634;2023-02-19T11:37:33;1999.90;;;999.90;;
61527;SDS011;47395;42.032;-8.634;2023-02-19T11:39:34;1999.90;;;999.90;;
61527;SDS011;47395;42.032;-8.634;2023-02-19T11:44:14;1999.90;;;999.90;;
61527;SDS011;47395;42.032;-8.634;2023-02-19T11:52:36;1999.90;;;999.90;;
61527;SDS011;47395;42.032;-8.634;2023-02-19T11:54:51;1999.90;;;999.90;;
61527;SDS011;47395;42.032;-8.634;2023-02-19T11:59:21;1999.90;;;999.90;;